Friday, April 29, 2016
21:40 UTC
  |  Log In   |  Register Free
Airport Search:

Henry Post Aaf (Fort Sill) Airport
(KFSI)

Henry Post Aaf (Fort Sill) Airport Diagram
No Airport Diagram Available

FAA data valid effective Mar 31 2016 - May 26 2016 (unless otherwise noted).

 
 
 
 
 
 
 
 
 
 
 
 
 
 
Current Aviation Weather for KFSI

Weather Summary


The most recent METAR observation for FSI was updated at: 12:58 UTC
METAR for KFSI is not available. Closest METAR is for KDUC
KFSI  (most recent observation was updatred at 29:20 UTC)
292058Z 06009KT 1SM +TSRA BR FEW002 BKN021 BKN032 OVC044 17/16 A2951 RMK AO2A PKWND 32026/24 VIS 1/4V1 LTG DSNT ALQDS DZB29E32RAB32 TSB32 GRE53 CIG016V022 SLP988 P0084 60084 57042 RVRNO $

KDUC  (24.4 nm NW)   (most recent observation was updated at 29:21 UTC)
292135Z AUTO 28019G27KT 7SM RA SCT027 SCT044 SCT060 22/16 A2962 RMK AO2 P0002 TSNO

KFDR  (33.9 nm NE)   (most recent observation was updated at 29:20 UTC)
292053Z AUTO 32020G25KT 10SM CLR 23/18 A2954 RMK AO2 PKWND 31026/2011 WSHFT1940 SLP988 T02330183 55014 TSNO

TAF for KFSI is not available.
KFSI
AMD 292130Z 2921/0103 33010KT 9999 BKN020 520202 QNH2952INS TEMPO 2921/2924 33015G25KT 8000 -TSRA BKN020CB BECMG 2923/2924 30012KT 9999 SCT015 510202 QNH2961INS BECMG 3008/3009 33006KT 1600 BR OVC008 QNH2975INS BECMG 3014/3015 31012G18KT 9999 NSW SCT020 QNH2974INS BECMG 3020/3021 27009KT 9999 SKC QNH2974INS TX19/2921Z TN08/3012Z AMD 292130

KLAW  (5.0 nm NE)   (most recent observation was updatred at 29:19 UTC)
AMD 291954Z 2920/3018 12015KT P6SM VCTS FEW020 BKN060CB TEMPO 2920/2923 4SM TSRA BKN005 BKN060CB FM292300 34012G18KT P6SM SCT040 SCT250
GlobalAir.com is loading additional information.
 Current Weather at FSI
76.0 F° (24.5 C°)

Southeast winds at 13.8 mph
Pressure:
29.53 in
Humidity:
82%
Wind:
Southeast at 13.8 mph
Dew Point:
70.3 F° (21.3 C°)
Visibility:
10.00 mi
FSI NOAA Radar




Find All Airport Services Find A Hotel Find A Rental Car Find A Golf Course Find A Restaurant $100 Hamburger



Airport Weather Forecast for KFSI

Translated METAR for KFSI (2058 UTC)
METAR:
KFSI 292058Z 06009KT 1SM +TSRA BR FEW002 BKN021 BKN032 OVC044 17/16 A2951 RMK AO2A PKWND 32026/24 VIS 1/4V1 LTG DSNT ALQDS DZB29E32RAB32 TSB32 GRE53 CIG016V022 SLP988 P0084 60084 57042 RVRNO $
Conditions at:
KFSI (Henry Post Aaf (Fort Sill), OK) observed 2058 UTC 29 April 2016
Temperature:
17°C (62.6°F)
Dewpoint:
16°C (60.8°F) [RH = 93.8]
Pressure:
29.51 inches Hg (999.3 mb)
pressure at sea level is 988 in Hg
Winds:
from the ENE (060 degrees) at 10.4 mph (9 knots: 4.6 m/s)
Visibility:
1 mile(s)
Ceiling:
2,100 feet AGL
Clouds:
Few Clouds at 200 feet AGL
Broken Cloud Cover at 2,100 feet AGL
Broken Cloud Cover at 3,200 feet AGL
Overcast Skies at 4,400 feet AGL
Remarks:
SOME DATA ABOVE MAY BE INACCURATE!!!
"$" is an indication the sensor requires maintenance

Translated TAF for KFSI (Henry Post Aaf (Fort Sill), OK) (2130 UTC)
TAF text:
KFSI 292130Z 2921/0103 33010KT 9999 BKN020 520202 QNH2952INS
Forecast period:
Friday Apr 29 2016 21:00 UTC - Friday Apr 29 2016 03:00 UTC
Forecast type:
FROM: standard forecast or significant change
Winds:
from the NNW (330 degrees) at 11.5 mph (10 knots: 5.1 m/s)
Visibility:
Ceiling:
2,000 feet AGL
Clouds:
Broken Cloud Cover at 2,000 feet AGL
Weather:
no significant weather observed at this time
TAF text:
2921/2924 33015G25KT 8000 -TSRA BKN020CB BECMG 2923/2924 30012KT 9999 SCT015 510202 QNH2961INS BECMG 3008/3009 33006KT 1600 BR OVC008 QNH2975INS BECMG 3014/3015 31012G18KT 9999 NSW SCT020 QNH2974INS BECMG 3020/3021 27009KT 9999 SKC QNH2974INS TX19/2921Z TN08/3012Z 292130
Forecast period:
Saturday Apr 30 2016 21:00 UTC - Saturday Apr 30 2016 24:00 UTC
Forecast type:
FROM: standard forecast or significant change
Winds:
from the W (270 degrees) at 10.4 mph (9 knots: 4.6 m/s)
Visibility:
Ceiling:
at least 12,000 feet AGL
800 feet AGL
at least 12,000 feet AGL
at least 12,000 feet AGL
Clouds:
Scattered Clouds at 1,500 feet AGL
Overcast Skies at 800 feet AGL
Scattered Clouds at 2,000 feet AGL
Clear Skies
Weather:
Light Thunderstorm Rain
FBO's on the Field
FBO Company Facility Photos Services Transportation Aviation Fuel Prices: Prices include tax
Catering Weather Repair Courtesy Rental Type 100LL JetA JetA+ MOGAS 8087
 
Add another FBO Facility Photos Catering Weather Repair Courtesy Rental Type 100LL JetA JetA+ MOGAS 8087
Services Transportation Aviation Fuel Prices: Prices include tax
There are no FBO's currently reporting fuel at FSI. List your FBO now


model-print
model-print
model-print
model-print